Time;durP1;ratioP1;P1;durP2;ratioP2;P2;SDS_P1;SDS_P2;PMS_P1;PMS_P2;Temp;Humidity;BMP_temperature;BMP_pressure;BME280_temperature;BME280_humidity;BME280_pressure;Samples;Min_cycle;Max_cycle;Signal;HPM_P1;HPM_P2
2022/11/12 00:00:12;;;;;;;0.47;0.47;;;7.90;99.90;8.40;102828.00;;;;5103090;28;20210;-72
2022/11/12 00:02:43;;;;;;;0.40;0.40;;;7.90;99.90;8.70;102845.00;;;;5086945;28;20279;-73
2022/11/12 00:05:11;;;;;;;0.50;0.50;;;8.00;99.90;9.00;102840.00;;;;5088499;27;20182;-73
2022/11/12 00:07:43;;;;;;;0.50;0.50;;;8.20;99.90;9.30;102774.00;;;;5107395;28;20196;-73
2022/11/12 00:10:12;;;;;;;0.50;0.50;;;8.40;99.90;9.10;102823.00;;;;5104666;28;20548;-73
2022/11/12 00:12:43;;;;;;;0.50;0.50;;;8.30;99.90;8.90;102825.00;;;;5095399;28;20208;-73
2022/11/12 00:15:12;;;;;;;0.50;0.50;;;8.30;99.90;8.60;102830.00;;;;5108339;27;20660;-72
2022/11/12 00:17:41;;;;;;;0.80;0.80;;;8.20;99.90;8.60;102813.00;;;;5096957;28;20193;-73
2022/11/12 00:20:10;;;;;;;0.50;0.50;;;8.10;99.90;8.60;102815.00;;;;5117279;27;20544;-73
2022/11/12 00:22:39;;;;;;;0.50;0.50;;;8.10;99.90;8.40;102807.00;;;;5097602;28;20180;-73
2022/11/12 00:25:07;;;;;;;0.40;0.40;;;8.00;99.90;8.60;102808.00;;;;5097577;28;20694;-73
2022/11/12 00:27:39;;;;;;;0.73;0.73;;;8.00;99.90;8.80;102805.00;;;;5085717;28;20214;-73
2022/11/12 00:30:11;;;;;;;0.60;0.60;;;8.10;99.90;9.10;102799.00;;;;5094458;27;20181;-74
2022/11/12 00:32:41;;;;;;;1.07;1.07;;;8.20;99.90;9.00;102806.00;;;;5117913;27;20666;-74
2022/11/12 00:35:11;;;;;;;0.50;0.50;;;8.30;99.90;9.00;102806.00;;;;5092987;28;20270;-74
2022/11/12 00:37:44;;;;;;;0.43;0.43;;;8.20;99.90;8.90;102766.00;;;;5102335;28;20187;-74
2022/11/12 00:40:10;;;;;;;0.70;0.70;;;8.20;99.90;8.80;102803.00;;;;5105244;28;20270;-75
2022/11/12 00:42:46;;;;;;;0.50;0.50;;;8.20;99.90;8.50;102748.00;;;;5125839;27;20539;-74
2022/11/12 00:45:18;;;;;;;0.50;0.50;;;8.10;99.90;9.00;102817.00;;;;5089498;28;20185;-74
2022/11/12 00:47:58;;;;;;;10.07;9.67;;;8.10;99.90;9.30;102781.00;;;;5081501;28;20187;-74
2022/11/12 00:50:29;;;;;;;0.50;0.50;;;8.40;99.90;9.10;102824.00;;;;5102617;27;20642;-74
2022/11/12 00:52:59;;;;;;;0.53;0.53;;;8.30;99.90;9.20;102795.00;;;;5111149;28;20260;-74
2022/11/12 00:55:33;;;;;;;0.50;0.50;;;8.30;99.90;9.40;102809.00;;;;5098981;28;20195;-74
2022/11/12 00:58:04;;;;;;;0.60;0.60;;;8.40;99.90;9.10;102772.00;;;;5104286;27;20171;-74
2022/11/12 01:00:35;;;;;;;0.50;0.50;;;8.40;99.90;9.20;102800.00;;;;5116040;27;20188;-74
2022/11/12 01:03:09;;;;;;;0.50;0.50;;;8.40;99.90;9.30;102822.00;;;;5098197;28;20594;-74
2022/11/12 01:05:40;;;;;;;0.50;0.50;;;8.40;99.90;9.30;102808.00;;;;5098493;27;20187;-74
2022/11/12 01:08:09;;;;;;;0.57;0.57;;;8.50;99.90;9.20;102812.00;;;;5104230;27;20251;-74
2022/11/12 01:10:42;;;;;;;0.60;0.60;;;8.40;99.90;8.90;102761.00;;;;5120816;27;20182;-74
2022/11/12 01:13:12;;;;;;;0.40;0.40;;;8.30;99.90;8.60;102749.00;;;;5083922;27;20210;-74
2022/11/12 01:15:46;;;;;;;0.50;0.50;;;8.10;99.90;8.80;102819.00;;;;5100279;28;20189;-73
2022/11/12 01:18:21;;;;;;;0.60;0.60;;;8.10;99.90;8.90;102813.00;;;;5099061;28;20657;-73
2022/11/12 01:20:58;;;;;;;1.33;1.33;;;8.10;99.90;8.70;102797.00;;;;5102288;28;20270;-73
2022/11/12 01:23:29;;;;;;;0.60;0.60;;;8.00;99.90;8.70;102802.00;;;;5100775;28;20688;-72
2022/11/12 01:25:58;;;;;;;0.50;0.50;;;8.00;99.90;8.60;102833.00;;;;5114597;28;20180;-73
2022/11/12 01:28:30;;;;;;;0.60;0.60;;;7.90;99.90;9.10;102811.00;;;;5110124;28;20192;-73
2022/11/12 01:31:11;;;;;;;0.60;0.60;;;8.00;99.90;8.90;102794.00;;;;5096870;28;20638;-73
2022/11/12 01:33:41;;;;;;;0.60;0.60;;;8.10;99.90;9.20;102806.00;;;;5114717;28;20544;-73
2022/11/12 01:36:14;;;;;;;0.60;0.60;;;8.20;99.90;9.10;102807.00;;;;5109171;28;20657;-72
2022/11/12 01:38:42;;;;;;;0.60;0.60;;;8.20;99.90;9.20;102820.00;;;;5098078;27;20180;-73
2022/11/12 01:41:15;;;;;;;0.60;0.60;;;8.20;99.90;9.20;102822.00;;;;5090498;27;20188;-73
2022/11/12 01:43:43;;;;;;;0.60;0.60;;;8.20;99.90;9.20;102751.00;;;;5096995;27;20272;-74
2022/11/12 01:46:29;;;;;;;1.33;1.33;;;8.30;99.90;9.10;102797.00;;;;5118497;27;20192;-73
2022/11/12 01:49:02;;;;;;;8.47;7.87;;;8.30;99.90;9.00;102798.00;;;;5095566;28;20195;-73
2022/11/12 01:51:35;;;;;;;0.60;0.60;;;8.20;99.90;9.10;102804.00;;;;5099358;27;20659;-74
2022/11/12 01:54:31;;;;;;;0.60;0.60;;;8.20;99.90;8.90;102807.00;;;;5082622;28;20191;-73
2022/11/12 01:56:58;;;;;;;0.60;0.60;;;8.20;99.90;8.80;102759.00;;;;5101437;28;20273;-73
2022/11/12 01:59:41;;;;;;;0.60;0.60;;;8.10;99.90;8.90;102809.00;;;;5096662;28;20183;-73
2022/11/12 02:02:14;;;;;;;0.53;0.53;;;8.00;99.90;8.80;102803.00;;;;5092746;28;20185;-73
2022/11/12 02:04:47;;;;;;;0.70;0.70;;;8.00;99.90;8.90;102805.00;;;;5102798;28;20188;-72
2022/11/12 02:07:23;;;;;;;0.60;0.60;;;7.90;99.90;8.90;102793.00;;;;5095501;28;20192;-72
2022/11/12 02:09:54;;;;;;;0.60;0.60;;;8.00;99.90;9.10;102794.00;;;;5108714;28;20180;-72
2022/11/12 02:15:14;;;;;;;0.60;0.60;;;8.20;99.90;8.90;102784.00;;;;5123118;27;20327;-72
2022/11/12 02:17:45;;;;;;;0.57;0.57;;;8.10;99.90;9.10;102801.00;;;;5102391;27;20191;-72
2022/11/12 02:20:22;;;;;;;0.50;0.50;;;8.20;99.90;8.80;102798.00;;;;5096340;28;20180;-73
2022/11/12 02:22:51;;;;;;;0.60;0.60;;;8.00;99.90;9.00;102768.00;;;;5111489;28;20220;-72
2022/11/12 02:25:22;;;;;;;0.50;0.50;;;8.00;99.90;8.80;102788.00;;;;5106360;27;20184;-72
2022/11/12 02:27:55;;;;;;;0.70;0.70;;;8.00;99.90;8.40;102790.00;;;;5088150;28;20634;-73
2022/11/12 02:30:42;;;;;;;0.60;0.60;;;7.80;99.90;8.20;102786.00;;;;5106693;28;20180;-72
2022/11/12 02:33:13;;;;;;;0.50;0.50;;;7.70;99.90;8.60;102782.00;;;;5098456;28;20211;-72
2022/11/12 02:35:44;;;;;;;0.60;0.60;;;7.70;99.90;8.50;102785.00;;;;5104258;28;20172;-72
2022/11/12 02:38:13;;;;;;;0.60;0.60;;;7.70;99.90;8.60;102796.00;;;;5097754;28;20190;-73
2022/11/12 02:40:46;;;;;;;0.60;0.60;;;7.70;99.90;8.50;102780.00;;;;5098514;28;20176;-73
2022/11/12 02:43:15;;;;;;;0.60;0.60;;;7.70;99.90;8.20;102774.00;;;;5117875;28;20190;-72
2022/11/12 02:45:43;;;;;;;0.60;0.60;;;7.60;99.90;8.70;102774.00;;;;5094994;28;20175;-72
2022/11/12 02:48:14;;;;;;;15.37;4.60;;;7.70;99.90;8.80;102772.00;;;;5094572;28;20717;-72
2022/11/12 02:50:46;;;;;;;0.60;0.60;;;7.80;99.90;8.60;102773.00;;;;5103890;28;20210;-72
2022/11/12 02:53:14;;;;;;;0.60;0.60;;;7.80;99.90;8.20;102785.00;;;;5101259;28;20204;-72
2022/11/12 02:55:46;;;;;;;0.60;0.60;;;7.60;99.90;8.30;102761.00;;;;5122819;28;20182;-72
2022/11/12 02:58:14;;;;;;;1.20;1.20;;;7.60;99.90;8.10;102767.00;;;;5112073;28;20192;-72
2022/11/12 03:00:48;;;;;;;0.70;0.70;;;7.50;99.90;8.20;102767.00;;;;5122835;28;20217;-72
2022/11/12 03:03:17;;;;;;;0.80;0.80;;;7.40;99.90;7.70;102762.00;;;;5099362;28;20196;-72
2022/11/12 03:05:57;;;;;;;0.70;0.70;;;7.20;99.90;8.10;102763.00;;;;5099142;28;20199;-72
2022/11/12 03:08:29;;;;;;;0.70;0.70;;;7.20;99.90;7.80;102759.00;;;;5095174;28;20647;-72
2022/11/12 03:11:00;;;;;;;0.60;0.60;;;7.20;99.90;7.70;102787.00;;;;5097232;28;20221;-72
2022/11/12 03:13:32;;;;;;;0.93;0.93;;;7.10;99.90;7.80;102786.00;;;;5113159;28;20264;-73
2022/11/12 03:16:00;;;;;;;1.07;1.07;;;7.00;99.90;7.90;102777.00;;;;5084701;28;20183;-72
2022/11/12 03:18:32;;;;;;;0.60;0.60;;;7.10;99.90;8.30;102766.00;;;;5092167;28;20196;-72
2022/11/12 03:21:03;;;;;;;0.60;0.60;;;7.20;99.90;8.30;102767.00;;;;5098901;28;20250;-72
2022/11/12 03:23:32;;;;;;;0.60;0.60;;;7.30;99.90;8.20;102770.00;;;;5112722;28;20212;-72
2022/11/12 03:26:02;;;;;;;0.60;0.60;;;7.30;99.90;8.30;102760.00;;;;5106196;28;20192;-72
2022/11/12 03:28:30;;;;;;;0.60;0.60;;;7.40;99.90;8.40;102770.00;;;;5101290;27;20237;-72
2022/11/12 03:30:58;;;;;;;0.50;0.50;;;7.50;99.90;8.10;102757.00;;;;5091614;27;20268;-72
2022/11/12 03:33:30;;;;;;;1.37;1.37;;;7.40;99.90;8.40;102757.00;;;;5118060;27;20240;-72
2022/11/12 03:36:01;;;;;;;0.67;0.67;;;7.50;99.90;8.20;102773.00;;;;5092674;27;20198;-72
2022/11/12 03:38:30;;;;;;;0.73;0.73;;;7.40;99.90;8.00;102776.00;;;;5089763;28;20681;-72
2022/11/12 03:40:59;;;;;;;0.60;0.60;;;7.40;99.90;8.00;102727.00;;;;5120092;27;20182;-72
2022/11/12 03:43:31;;;;;;;0.77;0.77;;;7.30;99.90;8.10;102785.00;;;;5106199;28;20701;-72
2022/11/12 03:46:00;;;;;;;2.40;2.30;;;7.30;99.90;8.50;102786.00;;;;5100531;27;20189;-72
2022/11/12 03:48:26;;;;;;;0.90;0.90;;;7.50;99.90;7.90;102766.00;;;;5118835;27;20583;-72
2022/11/12 03:51:01;;;;;;;0.83;0.83;;;7.30;99.90;7.80;102759.00;;;;5098131;28;20183;-71
2022/11/12 03:53:29;;;;;;;0.97;0.97;;;7.10;99.90;8.00;102752.00;;;;5117390;27;20292;-72
2022/11/12 03:56:03;;;;;;;9.10;4.97;;;7.30;99.90;8.40;102732.00;;;;5103062;28;20183;-72
2022/11/12 03:58:29;;;;;;;1.20;1.20;;;7.40;99.90;7.90;102761.00;;;;5110696;28;20190;-72
2022/11/12 04:01:01;;;;;;;1.07;1.07;;;7.30;99.90;8.10;102757.00;;;;5117484;27;20174;-73
2022/11/12 04:03:29;;;;;;;1.50;0.83;;;7.30;99.90;8.40;102752.00;;;;5113749;27;20650;-72
2022/11/12 04:08:42;;;;;;;0.70;0.70;;;7.50;99.90;8.10;102769.00;;;;5134270;27;20201;-72
2022/11/12 04:11:15;;;;;;;1.00;1.00;;;7.40;99.90;8.10;102730.00;;;;5111787;27;20173;-72
2022/11/12 04:13:46;;;;;;;0.63;0.63;;;7.50;99.90;8.50;102762.00;;;;5105323;27;20176;-72
2022/11/12 04:22:08;;;;;;;1.47;1.37;;;7.60;99.90;8.10;102747.00;;;;5106285;27;20197;-72
2022/11/12 04:27:28;;;;;;;1.63;1.53;;;7.60;99.90;8.20;102760.00;;;;5105077;27;20314;-72
2022/11/12 04:30:15;;;;;;;0.60;0.60;;;7.50;99.90;8.60;102759.00;;;;5091848;27;20183;-72
2022/11/12 04:32:55;;;;;;;0.70;0.70;;;7.60;99.90;8.80;102749.00;;;;5084622;28;20216;-72
2022/11/12 04:35:26;;;;;;;3.63;3.33;;;7.80;99.90;8.20;102746.00;;;;5097656;27;20326;-72
2022/11/12 04:37:56;;;;;;;0.60;0.60;;;7.70;99.90;8.30;102691.00;;;;5105272;28;20187;-72
2022/11/12 04:46:06;;;;;;;1.03;1.03;;;7.50;99.90;8.20;102710.00;;;;5115049;28;20188;-72
2022/11/12 04:48:32;;;;;;;0.50;0.50;;;7.50;99.90;8.40;102728.00;;;;5109452;28;20190;-72
2022/11/12 04:52:03;;;;;;;3.07;2.77;;;7.50;99.90;8.50;102739.00;;;;5099063;28;20187;-72
2022/11/12 04:53:55;;;;;;;0.80;0.80;;;7.60;99.90;8.40;102734.00;;;;5109612;27;20228;-72
2022/11/12 04:56:26;;;;;;;0.70;0.70;;;7.60;99.90;8.50;102735.00;;;;5102882;28;20204;-72
2022/11/12 04:58:55;;;;;;;0.60;0.60;;;7.50;99.90;8.80;102733.00;;;;5097322;28;20545;-72
2022/11/12 05:01:29;;;;;;;0.60;0.60;;;7.70;99.90;8.40;102739.00;;;;5106170;28;20193;-72
2022/11/12 05:03:59;;;;;;;2.63;2.50;;;7.70;99.90;8.40;102739.00;;;;5128054;27;20195;-72
2022/11/12 05:09:18;;;;;;;1.67;1.57;;;7.60;99.90;8.50;102694.00;;;;5104122;28;20267;-73
2022/11/12 05:11:49;;;;;;;1.53;1.43;;;7.70;99.90;8.30;102733.00;;;;5105656;28;20516;-72
2022/11/12 05:14:18;;;;;;;0.60;0.60;;;7.50;99.90;8.20;102750.00;;;;5100169;28;20218;-72
2022/11/12 05:16:47;;;;;;;0.80;0.80;;;7.50;99.90;8.30;102734.00;;;;5118968;27;20236;-72
2022/11/12 05:19:19;;;;;;;0.80;0.80;;;7.50;99.90;8.10;102748.00;;;;5081035;28;20189;-72
2022/11/12 05:22:07;;;;;;;0.60;0.60;;;7.40;99.90;8.10;102738.00;;;;5096491;28;20676;-72
2022/11/12 05:24:45;;;;;;;1.60;1.60;;;7.30;99.90;8.00;102743.00;;;;5104820;28;20186;-72
2022/11/12 05:27:20;;;;;;;1.80;1.70;;;7.20;99.90;8.20;102736.00;;;;5086600;27;20185;-73
2022/11/12 05:29:50;;;;;;;2.40;1.93;;;7.30;99.90;8.10;102726.00;;;;5101858;27;20190;-73
2022/11/12 05:32:19;;;;;;;0.80;0.80;;;7.40;99.90;8.00;102709.00;;;;5095821;28;20273;-72
2022/11/12 05:34:51;;;;;;;2.10;2.00;;;7.40;99.90;7.90;102727.00;;;;5097934;28;20191;-72
2022/11/12 05:37:17;;;;;;;0.83;0.83;;;7.30;99.90;7.80;102744.00;;;;5126670;27;20181;-72
2022/11/12 05:39:48;;;;;;;1.20;1.20;;;7.30;99.90;8.00;102722.00;;;;5094894;28;20194;-72
2022/11/12 05:42:17;;;;;;;0.60;0.60;;;7.20;99.90;7.90;102729.00;;;;5099897;27;20266;-72
2022/11/12 05:44:48;;;;;;;1.07;1.07;;;7.20;99.90;7.90;102725.00;;;;5120282;27;20186;-72
2022/11/12 05:47:19;;;;;;;3.80;2.60;;;7.20;99.90;8.20;102729.00;;;;5103502;27;20642;-72
2022/11/12 05:49:48;;;;;;;1.00;1.00;;;7.30;99.90;8.10;102730.00;;;;5096324;28;20644;-72
2022/11/12 05:52:19;;;;;;;1.03;1.03;;;7.40;99.90;8.00;102734.00;;;;5091495;28;20702;-72
2022/11/12 05:54:48;;;;;;;1.43;1.43;;;7.40;99.90;7.80;102712.00;;;;5102896;28;20209;-72
2022/11/12 05:57:23;;;;;;;0.50;0.50;;;7.30;99.90;7.80;102735.00;;;;5100154;28;20175;-72
2022/11/12 05:59:56;;;;;;;0.60;0.60;;;7.20;99.90;7.80;102747.00;;;;5096417;28;20184;-72
2022/11/12 06:02:30;;;;;;;0.60;0.60;;;7.20;99.90;8.00;102749.00;;;;5103633;28;20198;-72
2022/11/12 06:05:06;;;;;;;0.50;0.50;;;7.30;99.90;8.00;102746.00;;;;5107589;27;20215;-72
2022/11/12 06:07:38;;;;;;;0.50;0.50;;;7.30;99.90;8.30;102753.00;;;;5101927;28;20276;-73
2022/11/12 06:10:07;;;;;;;3.10;2.10;;;7.50;99.90;8.30;102741.00;;;;5109322;28;20272;-73
2022/11/12 06:12:36;;;;;;;1.00;1.00;;;7.50;99.90;8.20;102743.00;;;;5104174;28;20203;-73
2022/11/12 06:15:06;;;;;;;1.23;1.23;;;7.50;99.90;8.30;102737.00;;;;5116307;27;20179;-72
2022/11/12 06:17:46;;;;;;;0.80;0.80;;;7.60;99.90;7.90;102723.00;;;;5103995;28;20260;-73
2022/11/12 06:20:17;;;;;;;0.60;0.60;;;7.50;99.90;8.10;102741.00;;;;5086269;27;20214;-72
2022/11/12 06:22:49;;;;;;;0.70;0.70;;;7.40;99.90;8.10;102727.00;;;;5101671;28;20192;-73
2022/11/12 06:25:24;;;;;;;1.00;1.00;;;7.30;99.90;8.10;102740.00;;;;5109868;28;20190;-72
2022/11/12 06:27:53;;;;;;;1.10;1.10;;;7.30;99.90;7.90;102732.00;;;;5111393;28;20186;-72
2022/11/12 06:30:22;;;;;;;0.50;0.50;;;7.30;99.90;7.70;102738.00;;;;5125551;27;20587;-72
2022/11/12 06:32:54;;;;;;;1.13;1.13;;;7.20;99.90;7.70;102739.00;;;;5093412;28;20210;-72
2022/11/12 06:35:22;;;;;;;0.70;0.70;;;7.20;99.90;7.70;102710.00;;;;5096672;28;20555;-72
2022/11/12 06:37:52;;;;;;;1.00;1.00;;;7.20;99.90;7.50;102734.00;;;;5097117;28;20273;-72
2022/11/12 06:40:23;;;;;;;0.50;0.50;;;7.10;99.90;7.70;102753.00;;;;5097319;28;20183;-72
2022/11/12 06:42:59;;;;;;;0.83;0.83;;;7.10;99.90;7.80;102748.00;;;;5121896;28;20194;-72
2022/11/12 06:45:30;;;;;;;0.60;0.60;;;7.20;99.90;7.80;102700.00;;;;5105077;28;20257;-72
2022/11/12 06:48:03;;;;;;;1.23;1.23;;;7.30;99.90;8.20;102754.00;;;;5097410;28;20182;-72
2022/11/12 06:50:34;;;;;;;0.77;0.77;;;7.40;99.90;8.30;102757.00;;;;5130835;28;20190;-72
2022/11/12 06:53:06;;;;;;;0.50;0.50;;;7.40;99.90;8.30;102752.00;;;;5106497;27;20223;-72
2022/11/12 06:55:37;;;;;;;0.60;0.60;;;7.50;99.90;8.80;102759.00;;;;5124044;27;20189;-73
2022/11/12 06:58:11;;;;;;;0.83;0.83;;;7.70;99.90;9.10;102752.00;;;;5099093;28;20637;-72
2022/11/12 07:00:39;;;;;;;0.60;0.60;;;7.90;99.90;8.80;102756.00;;;;5100045;28;20185;-72
2022/11/12 07:03:12;;;;;;;0.60;0.60;;;8.00;99.90;8.90;102748.00;;;;5101835;28;20191;-73
2022/11/12 07:05:52;;;;;;;0.77;0.77;;;8.00;99.90;8.90;102764.00;;;;5109616;28;20190;-72
2022/11/12 07:08:23;;;;;;;0.67;0.67;;;7.90;99.90;9.00;102754.00;;;;5102876;28;20192;-72
2022/11/12 07:10:58;;;;;;;1.03;1.03;;;8.00;99.90;8.60;102746.00;;;;5098762;28;20195;-72
2022/11/12 07:13:33;;;;;;;0.60;0.60;;;7.90;99.90;8.30;102713.00;;;;5120979;27;20206;-72
2022/11/12 07:16:05;;;;;;;0.60;0.60;;;7.70;99.90;8.30;102751.00;;;;5100097;28;20175;-72
2022/11/12 07:18:34;;;;;;;0.70;0.70;;;7.60;99.90;8.90;102764.00;;;;5091066;28;20250;-73
2022/11/12 07:21:16;;;;;;;0.80;0.80;;;7.80;99.90;8.50;102763.00;;;;5088976;27;20188;-72
2022/11/12 07:23:48;;;;;;;2.00;1.80;;;7.80;99.90;8.50;102753.00;;;;5098554;28;20535;-73
2022/11/12 07:26:28;;;;;;;0.70;0.70;;;7.70;99.90;8.80;102757.00;;;;5107319;28;20202;-73
2022/11/12 07:28:59;;;;;;;0.70;0.70;;;7.80;99.90;8.60;102754.00;;;;5110936;28;20172;-73
2022/11/12 07:31:27;;;;;;;0.70;0.70;;;7.80;99.90;9.00;102776.00;;;;5102423;28;20199;-72
2022/11/12 07:33:55;;;;;;;0.60;0.60;;;7.90;99.90;9.10;102763.00;;;;5088016;28;20187;-72
2022/11/12 07:36:25;;;;;;;1.00;1.00;;;8.00;99.90;8.80;102774.00;;;;5099663;28;20217;-73
2022/11/12 07:38:52;;;;;;;0.70;0.70;;;8.00;99.90;8.80;102777.00;;;;5098344;28;20273;-72
2022/11/12 07:41:23;;;;;;;0.70;0.70;;;8.00;99.90;8.40;102781.00;;;;5094234;28;20631;-72
2022/11/12 07:43:56;;;;;;;0.70;0.70;;;7.80;99.90;8.50;102784.00;;;;5089094;28;20186;-72
2022/11/12 07:46:30;;;;;;;1.87;1.77;;;7.70;99.90;9.00;102744.00;;;;5087303;28;20641;-72
2022/11/12 07:49:06;;;;;;;0.70;0.70;;;8.00;99.90;9.30;102734.00;;;;5100903;28;20191;-72
2022/11/12 07:51:35;;;;;;;0.70;0.70;;;8.20;99.90;9.30;102788.00;;;;5104162;28;20182;-72
2022/11/12 07:54:07;;;;;;;0.77;0.77;;;8.30;99.90;9.50;102795.00;;;;5095639;27;20183;-72
2022/11/12 07:56:40;;;;;;;2.87;2.30;;;8.50;99.90;9.30;102777.00;;;;5101752;28;20257;-72
2022/11/12 07:59:09;;;;;;;1.17;1.17;;;8.50;99.90;9.20;102792.00;;;;5102458;28;20187;-72
2022/11/12 08:01:45;;;;;;;1.37;1.37;;;8.40;99.90;8.90;102779.00;;;;5104263;28;20191;-72
2022/11/12 08:04:11;;;;;;;0.60;0.60;;;8.30;99.90;9.30;102785.00;;;;5116120;27;20175;-73
2022/11/12 08:06:40;;;;;;;0.60;0.60;;;8.40;99.90;9.10;102740.00;;;;5116801;27;20203;-72
2022/11/12 08:09:09;;;;;;;0.60;0.60;;;8.30;99.90;9.60;102792.00;;;;5084118;28;20280;-72
2022/11/12 08:11:35;;;;;;;0.77;0.77;;;8.70;99.90;9.80;102790.00;;;;5102986;27;20223;-72
2022/11/12 08:14:04;;;;;;;1.20;1.10;;;8.80;99.90;10.00;102778.00;;;;5113755;27;20529;-72
2022/11/12 08:16:35;;;;;;;2.10;2.00;;;9.00;99.90;9.10;102805.00;;;;5132765;27;20246;-72
2022/11/12 08:19:09;;;;;;;1.00;1.00;;;8.80;99.90;8.90;102780.00;;;;5118218;27;20199;-74
2022/11/12 08:21:38;;;;;;;0.60;0.60;;;8.70;99.90;9.30;102790.00;;;;5122185;27;20191;-73
2022/11/12 08:24:12;;;;;;;0.60;0.60;;;8.60;99.90;8.80;102779.00;;;;5098899;27;20188;-74
2022/11/12 08:26:38;;;;;;;1.23;1.23;;;8.50;99.90;8.80;102771.00;;;;5088449;28;20192;-73
2022/11/12 08:29:04;;;;;;;9.20;4.10;;;8.50;99.90;9.70;102813.00;;;;5098472;27;20172;-74
2022/11/12 08:31:30;;;;;;;0.60;0.60;;;8.70;99.90;10.10;102795.00;;;;5113903;28;20192;-74
2022/11/12 08:33:56;;;;;;;0.60;0.60;;;9.10;99.90;9.80;102791.00;;;;5103306;27;20210;-74
2022/11/12 08:36:22;;;;;;;0.70;0.70;;;9.20;99.90;10.00;102750.00;;;;5100824;28;20196;-74
2022/11/12 08:38:51;;;;;;;0.83;0.83;;;9.30;99.90;10.60;102816.00;;;;5107574;27;20263;-74
2022/11/12 08:41:17;;;;;;;0.60;0.60;;;9.60;99.90;9.90;102805.00;;;;5113672;28;20641;-72
2022/11/12 08:44:06;;;;;;;0.80;0.80;;;9.30;99.90;9.60;102788.00;;;;5126048;27;20191;-72
2022/11/12 08:46:51;;;;;;;0.50;0.50;;;9.50;99.90;10.70;102797.00;;;;5126690;27;20196;-72
2022/11/12 08:49:20;;;;;;;0.80;0.80;;;9.80;99.90;11.00;102782.00;;;;5087186;28;20275;-72
2022/11/12 08:51:49;;;;;;;0.70;0.70;;;10.10;99.90;11.70;102784.00;;;;5096890;28;20731;-73
2022/11/12 08:54:31;;;;;;;0.80;0.80;;;10.60;99.90;11.70;102789.00;;;;5118957;27;20654;-72
2022/11/12 08:57:32;;;;;;;0.60;0.60;;;10.80;99.90;11.90;102778.00;;;;5096586;28;20219;-72
2022/11/12 09:00:21;;;;;;;1.83;1.80;;;10.80;99.90;10.90;102741.00;;;;5112239;27;20183;-72
2022/11/12 09:03:21;;;;;;;0.83;0.67;;;10.90;99.90;11.70;102786.00;;;;5107098;27;20282;-72
2022/11/12 09:05:53;;;;;;;0.60;0.60;;;11.10;99.90;12.20;102790.00;;;;5099357;28;20176;-72
2022/11/12 09:08:26;;;;;;;0.70;0.70;;;11.40;99.90;11.80;102805.00;;;;5093453;28;20612;-72
2022/11/12 09:10:57;;;;;;;0.87;0.80;;;11.50;99.90;12.80;102773.00;;;;5099679;27;20282;-72
2022/11/12 09:13:23;;;;;;;0.50;0.50;;;11.90;99.90;13.40;102799.00;;;;5104750;27;20246;-72
2022/11/12 09:15:56;;;;;;;2.00;1.77;;;12.30;99.90;13.50;102814.00;;;;5129150;27;20635;-72
2022/11/12 09:18:45;;;;;;;1.70;1.23;;;12.60;99.90;13.30;102810.00;;;;5092791;27;20193;-72
2022/11/12 09:21:13;;;;;;;1.23;1.00;;;12.60;99.90;13.40;102787.00;;;;5102866;28;20182;-72
2022/11/12 09:23:50;;;;;;;0.40;0.40;;;12.60;99.90;13.00;102827.00;;;;5104113;27;20264;-72
2022/11/12 09:27:05;;;;;;;0.67;0.67;;;12.50;99.90;12.90;102798.00;;;;5104562;28;20194;-72
2022/11/12 09:29:57;;;;;;;0.80;0.80;;;12.20;99.90;12.00;102808.00;;;;5090274;27;20608;-72
2022/11/12 09:32:26;;;;;;;0.77;0.77;;;12.00;99.90;13.20;102822.00;;;;5067586;27;20221;-72
2022/11/12 09:34:52;;;;;;;0.40;0.40;;;12.20;99.90;13.20;102804.00;;;;5103640;27;20202;-72
2022/11/12 09:37:17;;;;;;;0.30;0.30;;;12.40;99.90;14.40;102781.00;;;;5104985;27;20643;-72
2022/11/12 09:39:46;;;;;;;0.30;0.30;;;13.00;99.90;14.80;102790.00;;;;5110211;28;20231;-72
2022/11/12 09:42:20;;;;;;;0.30;0.30;;;13.60;99.90;14.90;102841.00;;;;5084661;28;20192;-72
2022/11/12 09:45:02;;;;;;;1.60;1.60;;;13.80;99.90;14.40;102825.00;;;;5096643;28;20244;-72
2022/11/12 09:47:46;;;;;;;0.47;0.47;;;13.90;99.90;14.20;102831.00;;;;5095975;28;20631;-72
2022/11/12 09:50:25;;;;;;;0.60;0.60;;;13.60;99.90;14.10;102834.00;;;;5084858;28;20559;-72
2022/11/12 09:53:29;;;;;;;0.57;0.57;;;13.70;99.90;15.10;102837.00;;;;5118169;27;20205;-72
2022/11/12 09:56:31;;;;;;;0.20;0.20;;;14.10;99.90;15.50;102850.00;;;;5112422;27;20200;-72
2022/11/12 09:59:12;;;;;;;0.20;0.20;;;14.50;99.90;15.20;102858.00;;;;5108352;27;20562;-73
2022/11/12 10:01:43;;;;;;;0.30;0.30;;;14.50;99.90;16.00;102810.00;;;;5109001;28;20201;-72
2022/11/12 10:04:56;;;;;;;0.40;0.40;;;14.80;99.90;14.80;102801.00;;;;5122075;27;20188;-75
2022/11/12 10:07:41;;;;;;;2.57;2.50;;;14.40;99.90;15.50;102843.00;;;;5115433;27;20281;-75
2022/11/12 10:10:34;;;;;;;0.77;0.77;;;14.40;99.90;15.80;102856.00;;;;5112897;28;20638;-75
2022/11/12 10:13:21;;;;;;;0.20;0.20;;;14.80;99.90;16.80;102882.00;;;;5120228;27;20274;-75
2022/11/12 10:19:16;;;;;;;0.20;0.20;;;15.40;99.90;16.70;102887.00;;;;5113881;28;20274;-75
2022/11/12 10:33:29;;;;;;;1.77;1.67;;;14.70;99.90;15.70;102843.00;;;;5090258;27;20616;-75
2022/11/12 10:36:23;;;;;;;0.20;0.20;;;15.10;99.90;15.30;102842.00;;;;5068797;28;20447;-75
2022/11/12 10:38:53;;;;;;;0.20;0.20;;;14.90;99.90;16.30;102822.00;;;;5068613;28;20637;-75
2022/11/12 10:41:33;;;;;;;0.57;0.57;;;15.30;99.90;15.70;102853.00;;;;5068900;28;20182;-75
2022/11/12 10:44:05;;;;;;;0.27;0.27;;;15.30;99.90;15.60;102843.00;;;;5051695;28;20254;-75
2022/11/12 10:46:38;;;;;;;0.37;0.37;;;15.10;99.90;14.90;102830.00;;;;5067329;28;20182;-75
2022/11/12 10:49:26;;;;;;;0.47;0.47;;;14.70;99.90;15.00;102818.00;;;;5050765;28;20287;-75
2022/11/12 10:52:00;;;;;;;0.20;0.20;;;14.60;99.90;15.20;102800.00;;;;5064306;28;20212;-74
2022/11/12 10:54:26;;;;;;;2.47;0.70;;;14.60;99.90;15.40;102840.00;;;;5069401;28;20256;-74
2022/11/12 10:56:55;;;;;;;0.60;0.60;;;14.80;99.90;15.90;102831.00;;;;5069790;28;20702;-75
2022/11/12 10:59:47;;;;;;;0.20;0.20;;;14.90;99.90;16.10;102846.00;;;;5065580;28;20599;-75
2022/11/12 11:02:17;;;;;;;0.97;0.97;;;14.90;99.90;17.40;102861.00;;;;5036486;28;20258;-75
2022/11/12 11:04:47;;;;;;;0.30;0.30;;;15.70;99.90;18.00;102872.00;;;;5068378;28;20269;-74
2022/11/12 11:07:22;;;;;;;0.20;0.20;;;16.40;99.90;17.80;102824.00;;;;5066917;28;20547;-75
2022/11/12 11:09:59;;;;;;;0.40;0.40;;;16.60;99.90;18.10;102836.00;;;;5065642;28;20183;-74
2022/11/12 11:12:50;;;;;;;0.20;0.20;;;16.80;99.90;17.40;102868.00;;;;5049357;28;20224;-74
2022/11/12 11:15:30;;;;;;;0.20;0.20;;;16.70;99.90;18.50;102871.00;;;;5064487;28;20219;-74
2022/11/12 11:17:58;;;;;;;1.07;1.07;;;17.00;99.90;17.20;102868.00;;;;5058206;28;20681;-75
2022/11/12 11:20:45;;;;;;;0.40;0.40;;;16.70;99.90;17.10;102857.00;;;;5062662;28;20187;-74
2022/11/12 11:23:27;;;;;;;0.40;0.40;;;16.40;99.90;16.90;102874.00;;;;5067965;28;20187;-75
2022/11/12 11:25:57;;;;;;;0.77;0.77;;;16.30;99.90;16.60;102859.00;;;;5066908;28;20183;-75
2022/11/12 11:29:12;;;;;;;0.20;0.20;;;16.00;99.90;15.90;102774.00;;;;5051726;28;20198;-75
2022/11/12 11:32:11;;;;;;;0.10;0.10;;;15.40;99.90;16.40;102835.00;;;;5066137;28;20619;-75
2022/11/12 11:35:48;;;;;;;0.13;0.13;;;15.50;99.90;16.70;102822.00;;;;5060042;28;20639;-75
2022/11/12 11:38:48;;;;;;;0.10;0.10;;;15.60;99.90;16.70;102820.00;;;;5058173;28;20196;-75
2022/11/12 11:42:03;;;;;;;0.20;0.20;;;16.10;99.90;16.80;102804.00;;;;5051900;28;20181;-75
2022/11/12 11:45:15;;;;;;;0.10;0.10;;;15.90;99.90;16.50;102764.00;;;;5048950;28;20286;-75
2022/11/12 11:48:02;;;;;;;0.40;0.40;;;15.90;99.90;17.40;102814.00;;;;5050239;28;20243;-75
2022/11/12 11:54:24;;;;;;;0.10;0.10;;;16.40;99.90;17.10;102806.00;;;;5029981;28;20665;-75
2022/11/12 11:57:14;;;;;;;0.20;0.20;;;16.20;99.90;17.40;102801.00;;;;5053616;28;20663;-75
2022/11/12 11:59:55;;;;;;;0.17;0.17;;;16.40;99.90;16.90;102816.00;;;;5049609;28;20200;-75
2022/11/12 12:02:48;;;;;;;1.07;0.47;;;16.60;99.90;17.50;102812.00;;;;5046938;28;20229;-75
2022/11/12 12:05:40;;;;;;;0.93;0.93;;;16.60;99.90;17.00;102800.00;;;;5050752;28;20193;-75
2022/11/12 12:09:03;;;;;;;0.63;0.63;;;16.30;99.90;17.50;102815.00;;;;5035429;28;20636;-75
2022/11/12 12:12:06;;;;;;;0.20;0.20;;;16.30;99.90;17.30;102816.00;;;;5033565;28;20196;-75